Time;durP1;ratioP1;P1;durP2;ratioP2;P2;SDS_P1;SDS_P2;PMS_P1;PMS_P2;Temp;Humidity;BMP_temperature;BMP_pressure;BME280_temperature;BME280_humidity;BME280_pressure;Samples;Min_cycle;Max_cycle;Signal;HPM_P1;HPM_P2
2021/05/20 00:00:25;;;;;;;1.20;0.90;;;23.40;48.40;;;;;;5036483;28;20516;-85
2021/05/20 00:02:53;;;;;;;1.40;0.90;;;23.40;48.40;;;;;;5050905;28;20172;-85
2021/05/20 00:05:22;;;;;;;1.40;1.10;;;23.40;48.40;;;;;;5052609;28;20445;-85
2021/05/20 00:07:48;;;;;;;1.10;0.70;;;23.40;48.40;;;;;;5053257;28;20421;-85
2021/05/20 00:10:15;;;;;;;1.23;0.80;;;23.40;48.40;;;;;;5051259;28;20449;-85
2021/05/20 00:12:43;;;;;;;1.40;0.90;;;23.40;48.40;;;;;;5053092;28;20442;-85
2021/05/20 00:15:11;;;;;;;1.40;1.00;;;23.30;48.40;;;;;;5036165;28;20478;-86
2021/05/20 00:17:38;;;;;;;1.00;0.80;;;23.40;48.40;;;;;;5050205;28;20418;-86
2021/05/20 00:20:05;;;;;;;3.10;0.80;;;23.40;48.40;;;;;;5033303;28;20684;-86
2021/05/20 00:22:31;;;;;;;2.13;1.10;;;23.40;48.40;;;;;;5032577;28;20418;-86
2021/05/20 00:25:01;;;;;;;2.20;1.50;;;23.30;48.40;;;;;;5051246;28;20395;-85
2021/05/20 00:27:31;;;;;;;1.40;1.10;;;23.40;48.50;;;;;;5050780;28;20410;-86
2021/05/20 00:29:57;;;;;;;1.47;1.03;;;23.30;48.40;;;;;;5032812;28;20453;-86
2021/05/20 00:32:34;;;;;;;;;;;;;;;;;;;;;
2021/05/20 00:35:00;;;;;;;1.33;0.97;;;23.30;48.40;;;;;;5050444;28;20175;-83
2021/05/20 00:37:26;;;;;;;1.20;1.10;;;23.30;48.40;;;;;;5050511;28;20449;-83
2021/05/20 00:39:52;;;;;;;1.40;1.20;;;23.30;48.40;;;;;;5049821;28;20562;-84
2021/05/20 00:42:21;;;;;;;1.13;0.83;;;23.30;48.40;;;;;;5033016;28;20277;-83
2021/05/20 00:44:50;;;;;;;1.53;1.03;;;23.30;48.40;;;;;;5032523;28;20422;-83
2021/05/20 00:47:26;;;;;;;1.57;0.90;;;23.30;48.50;;;;;;5032143;28;20485;-83
2021/05/20 00:49:57;;;;;;;1.20;0.83;;;23.30;48.40;;;;;;5051329;28;20492;-83
2021/05/20 00:52:26;;;;;;;1.50;1.00;;;23.30;48.40;;;;;;5032291;28;20506;-83
2021/05/20 00:54:58;;;;;;;1.37;0.73;;;23.30;48.50;;;;;;5029008;28;20913;-82
2021/05/20 00:57:26;;;;;;;1.07;0.83;;;23.30;48.50;;;;;;5030379;28;20463;-82
2021/05/20 00:59:53;;;;;;;0.93;0.80;;;23.30;48.50;;;;;;5029931;28;20446;-86
2021/05/20 01:02:21;;;;;;;1.63;0.80;;;23.30;48.50;;;;;;5029054;28;20419;-85
2021/05/20 01:04:48;;;;;;;1.40;1.00;;;23.30;48.50;;;;;;5030856;28;20417;-86
2021/05/20 01:07:15;;;;;;;1.20;1.00;;;23.30;48.50;;;;;;5028972;28;20416;-84
2021/05/20 01:09:41;;;;;;;1.10;0.80;;;23.30;48.50;;;;;;5029592;28;20207;-86
2021/05/20 01:12:08;;;;;;;1.13;0.80;;;23.30;48.50;;;;;;5031186;28;20435;-86
2021/05/20 01:14:44;;;;;;;1.23;1.00;;;23.40;48.50;;;;;;5049469;28;20406;-85
2021/05/20 01:17:12;;;;;;;2.07;1.10;;;23.30;48.50;;;;;;5070069;28;20531;-86
2021/05/20 01:19:40;;;;;;;1.20;0.80;;;23.30;48.50;;;;;;5052459;28;20475;-85
2021/05/20 01:22:09;;;;;;;1.33;1.03;;;23.30;48.50;;;;;;5070723;28;20536;-86
2021/05/20 01:24:35;;;;;;;1.10;0.80;;;23.30;48.50;;;;;;5052495;28;20418;-86
2021/05/20 01:27:04;;;;;;;1.10;0.97;;;23.30;48.50;;;;;;5052618;28;20424;-85
2021/05/20 01:29:30;;;;;;;1.60;1.00;;;23.30;48.50;;;;;;5071317;28;20445;-85
2021/05/20 01:31:58;;;;;;;1.30;0.70;;;23.30;48.50;;;;;;5073494;28;20490;-85
2021/05/20 01:34:24;;;;;;;1.33;0.90;;;23.30;48.50;;;;;;5073092;28;20413;-85
2021/05/20 01:40:14;;;;;;;1.83;1.10;;;23.30;48.50;;;;;;5075549;28;20460;-85
2021/05/20 01:42:40;;;;;;;2.60;1.33;;;23.30;48.50;;;;;;5076222;28;20439;-84
2021/05/20 01:45:10;;;;;;;1.53;1.00;;;23.30;48.60;;;;;;5076238;28;20410;-86
2021/05/20 01:47:37;;;;;;;1.50;0.70;;;23.30;48.50;;;;;;5077332;28;20462;-85
2021/05/20 01:50:04;;;;;;;1.00;0.80;;;23.30;48.50;;;;;;5058673;28;20451;-85
2021/05/20 01:52:32;;;;;;;1.10;0.97;;;23.30;48.50;;;;;;5058205;28;20421;-86
2021/05/20 01:55:00;;;;;;;1.00;0.80;;;23.30;48.60;;;;;;5058536;28;20456;-86
2021/05/20 01:57:27;;;;;;;1.17;0.80;;;23.30;48.50;;;;;;5074036;28;20424;-86
2021/05/20 01:59:54;;;;;;;1.10;0.80;;;23.30;48.50;;;;;;5056805;28;20461;-86
2021/05/20 02:02:20;;;;;;;1.37;0.80;;;23.40;48.60;;;;;;5058038;28;20440;-85
2021/05/20 02:04:46;;;;;;;1.00;0.80;;;23.30;48.50;;;;;;5074277;28;20398;-86
2021/05/20 02:07:17;;;;;;;1.27;1.03;;;23.30;48.50;;;;;;5055723;28;20441;-85
2021/05/20 02:09:45;;;;;;;1.10;0.70;;;23.30;48.60;;;;;;5055301;28;20175;-86
2021/05/20 02:12:17;;;;;;;1.30;0.90;;;23.30;48.50;;;;;;5054994;28;20417;-86
2021/05/20 02:14:43;;;;;;;1.10;0.80;;;23.30;48.50;;;;;;5056082;28;20429;-86
2021/05/20 02:17:10;;;;;;;1.03;0.70;;;23.30;48.60;;;;;;5073435;28;20473;-86
2021/05/20 02:19:36;;;;;;;0.90;0.70;;;23.30;48.50;;;;;;5073759;28;20432;-86
2021/05/20 02:22:02;;;;;;;1.03;0.73;;;23.30;48.60;;;;;;5054848;28;20483;-86
2021/05/20 02:24:29;;;;;;;1.00;0.80;;;23.30;48.50;;;;;;5055495;28;20409;-86
2021/05/20 02:26:57;;;;;;;1.10;0.80;;;23.30;48.50;;;;;;5054523;28;20695;-86
2021/05/20 02:29:27;;;;;;;1.10;0.80;;;23.30;48.50;;;;;;5074714;28;20906;-83
2021/05/20 02:31:52;;;;;;;1.00;0.83;;;23.30;48.50;;;;;;5056741;28;20413;-83
2021/05/20 02:34:18;;;;;;;1.00;0.80;;;23.30;48.60;;;;;;5073249;28;20437;-83
2021/05/20 02:36:47;;;;;;;1.00;0.80;;;23.30;48.50;;;;;;5057763;28;20428;-84
2021/05/20 02:39:13;;;;;;;1.33;0.80;;;23.30;48.50;;;;;;5055436;28;20199;-83
2021/05/20 02:41:39;;;;;;;1.17;0.90;;;23.30;48.60;;;;;;5072074;28;20425;-83
2021/05/20 02:44:05;;;;;;;3.00;0.77;;;23.30;48.60;;;;;;5054528;28;20202;-82
2021/05/20 03:06:44;;;;;;;1.00;0.83;;;23.30;48.70;;;;;;5071654;28;20409;-82
2021/05/20 03:09:14;;;;;;;1.43;0.90;;;23.20;48.70;;;;;;5053932;28;20448;-83
2021/05/20 03:11:40;;;;;;;0.90;0.70;;;23.20;48.70;;;;;;5054105;28;20402;-83
2021/05/20 03:14:12;;;;;;;1.73;0.80;;;23.30;48.80;;;;;;5054061;28;20421;-83
2021/05/20 03:16:38;;;;;;;1.00;0.77;;;23.30;48.70;;;;;;5053767;28;20426;-83
2021/05/20 03:19:04;;;;;;;1.20;0.90;;;23.30;48.70;;;;;;5055785;28;20443;-83
2021/05/20 03:21:34;;;;;;;0.90;0.70;;;23.30;48.70;;;;;;5055005;28;20437;-84
2021/05/20 03:24:00;;;;;;;0.93;0.70;;;23.30;48.70;;;;;;5053747;28;20193;-83
2021/05/20 03:26:26;;;;;;;0.97;0.70;;;23.30;48.70;;;;;;5056142;28;20441;-83
2021/05/20 03:28:52;;;;;;;1.00;0.80;;;23.30;48.70;;;;;;5055576;28;20525;-83
2021/05/20 03:31:18;;;;;;;0.90;0.70;;;23.30;48.70;;;;;;5054830;28;20417;-83
2021/05/20 03:33:44;;;;;;;1.57;0.97;;;23.30;48.70;;;;;;5056445;28;20445;-83
2021/05/20 03:36:10;;;;;;;0.90;0.70;;;23.30;48.70;;;;;;5072116;28;20397;-83
2021/05/20 03:38:36;;;;;;;1.00;0.70;;;23.30;48.60;;;;;;5037234;28;20413;-83
2021/05/20 03:41:03;;;;;;;1.10;0.83;;;23.30;48.70;;;;;;5036522;28;20476;-83
2021/05/20 03:43:49;;;;;;;1.30;0.90;;;23.30;48.60;;;;;;5053690;28;20427;-83
2021/05/20 03:46:15;;;;;;;1.00;0.87;;;23.30;48.70;;;;;;5053475;28;20487;-83
2021/05/20 03:48:41;;;;;;;0.90;0.70;;;23.30;49.40;;;;;;5053726;28;20418;-83
2021/05/20 03:51:07;;;;;;;1.47;0.80;;;23.30;48.80;;;;;;5070981;28;20795;-83
2021/05/20 03:53:36;;;;;;;0.90;0.70;;;23.30;48.90;;;;;;5051924;28;20178;-83
2021/05/20 03:56:02;;;;;;;0.87;0.70;;;23.30;48.70;;;;;;5070189;28;20418;-83
2021/05/20 03:58:36;;;;;;;1.80;0.80;;;23.20;49.30;;;;;;5052390;28;20929;-84
2021/05/20 04:01:04;;;;;;;1.13;0.90;;;23.30;49.50;;;;;;5070491;28;20907;-85
2021/05/20 04:03:32;;;;;;;0.80;0.60;;;23.30;48.80;;;;;;5071893;28;20500;-85
2021/05/20 04:06:00;;;;;;;1.30;0.70;;;23.30;48.80;;;;;;5072135;28;20439;-85
2021/05/20 04:08:26;;;;;;;1.33;0.70;;;23.30;48.80;;;;;;5037555;28;20448;-86
2021/05/20 04:14:14;;;;;;;1.77;0.83;;;23.30;48.80;;;;;;5071131;28;20488;-85
2021/05/20 04:16:40;;;;;;;1.10;0.83;;;23.20;49.00;;;;;;5072477;28;20489;-86
2021/05/20 04:19:06;;;;;;;1.10;0.77;;;23.20;48.90;;;;;;5072195;28;20178;-83
2021/05/20 04:24:54;;;;;;;1.00;0.80;;;23.30;48.80;;;;;;5072212;28;20378;-85
2021/05/20 04:27:20;;;;;;;0.90;0.73;;;23.20;49.00;;;;;;5055401;28;20437;-85
2021/05/20 04:29:46;;;;;;;0.90;0.80;;;23.20;49.00;;;;;;5072633;28;20181;-85
2021/05/20 04:32:13;;;;;;;0.93;0.70;;;23.40;49.30;;;;;;5070243;28;20171;-85
2021/05/20 04:34:42;;;;;;;0.90;0.70;;;23.20;49.20;;;;;;5071015;28;20422;-85
2021/05/20 04:37:09;;;;;;;1.00;0.80;;;23.20;49.10;;;;;;5053846;28;20452;-84
2021/05/20 04:39:35;;;;;;;0.93;0.70;;;23.20;48.80;;;;;;5053371;28;20453;-85
2021/05/20 04:42:02;;;;;;;1.00;0.80;;;23.20;48.80;;;;;;5071287;28;20410;-85
2021/05/20 04:44:31;;;;;;;1.50;0.80;;;23.30;48.90;;;;;;5053854;28;20413;-85
2021/05/20 04:46:57;;;;;;;1.10;0.90;;;23.30;49.00;;;;;;5070824;28;20437;-85
2021/05/20 04:49:23;;;;;;;1.40;0.80;;;23.30;48.80;;;;;;5053293;28;20551;-85
2021/05/20 04:51:49;;;;;;;0.90;0.70;;;23.30;49.10;;;;;;5053576;28;20460;-85
2021/05/20 04:54:17;;;;;;;1.10;0.80;;;23.30;48.90;;;;;;5036039;28;20437;-85
2021/05/20 04:56:43;;;;;;;0.90;0.70;;;23.30;48.90;;;;;;5033340;28;20246;-85
2021/05/20 04:59:10;;;;;;;1.43;0.80;;;23.30;49.00;;;;;;5032610;28;20426;-85
2021/05/20 05:01:38;;;;;;;0.93;0.70;;;23.30;49.10;;;;;;5050174;28;20184;-86
2021/05/20 05:04:25;;;;;;;1.10;0.70;;;23.30;49.10;;;;;;5033665;28;20426;-85
2021/05/20 05:06:54;;;;;;;1.37;1.00;;;23.30;49.40;;;;;;5037107;28;20421;-85
2021/05/20 05:09:23;;;;;;;1.13;1.00;;;23.30;48.80;;;;;;5069522;28;20457;-85
2021/05/20 05:11:57;;;;;;;1.00;0.90;;;23.30;48.90;;;;;;5036632;28;20414;-85
2021/05/20 05:14:23;;;;;;;1.00;0.80;;;23.20;49.00;;;;;;5069626;28;20457;-85
2021/05/20 05:16:49;;;;;;;0.83;0.67;;;23.30;48.80;;;;;;5036047;28;20425;-85
2021/05/20 05:19:15;;;;;;;1.20;0.80;;;23.40;49.00;;;;;;5054298;28;20477;-85
2021/05/20 05:21:43;;;;;;;1.10;0.80;;;23.40;49.20;;;;;;5036268;28;20171;-83
2021/05/20 05:24:09;;;;;;;1.10;0.80;;;23.40;48.70;;;;;;5051451;28;20642;-83
2021/05/20 05:26:41;;;;;;;0.90;0.70;;;23.40;48.90;;;;;;5035631;28;20419;-82
2021/05/20 05:29:08;;;;;;;0.90;0.70;;;23.40;48.70;;;;;;5068909;28;20437;-83
2021/05/20 05:31:37;;;;;;;1.30;0.90;;;23.40;49.00;;;;;;5035035;28;20447;-83
2021/05/20 05:34:04;;;;;;;1.10;0.80;;;23.40;48.90;;;;;;5035826;28;20413;-82
2021/05/20 05:36:30;;;;;;;1.27;0.70;;;23.40;49.00;;;;;;5035333;28;20425;-83
2021/05/20 05:39:05;;;;;;;1.10;0.83;;;23.40;49.10;;;;;;5068774;28;20418;-83
2021/05/20 05:41:31;;;;;;;0.93;0.73;;;23.40;49.00;;;;;;5036207;28;20505;-83
2021/05/20 05:43:57;;;;;;;1.20;0.80;;;23.40;48.80;;;;;;5035333;28;20419;-84
2021/05/20 05:46:24;;;;;;;1.00;0.70;;;23.40;48.80;;;;;;5052735;28;20244;-83
2021/05/20 05:48:55;;;;;;;1.00;0.60;;;23.40;48.70;;;;;;5069222;28;20406;-85
2021/05/20 05:51:23;;;;;;;1.20;0.80;;;23.40;48.70;;;;;;5036306;28;20884;-85
2021/05/20 05:54:04;;;;;;;0.90;0.70;;;23.40;48.80;;;;;;5035619;28;20480;-83
2021/05/20 05:56:42;;;;;;;1.30;0.80;;;23.40;48.70;;;;;;5052097;28;20402;-84
2021/05/20 05:59:08;;;;;;;1.00;0.70;;;23.40;48.80;;;;;;5052135;28;20426;-83
2021/05/20 06:01:34;;;;;;;1.20;0.90;;;23.40;48.80;;;;;;5033459;28;20442;-84
2021/05/20 06:04:01;;;;;;;1.00;0.77;;;23.40;48.80;;;;;;5034338;28;20431;-83
2021/05/20 06:06:27;;;;;;;1.63;0.80;;;23.40;48.90;;;;;;5052154;28;20437;-83
2021/05/20 06:08:57;;;;;;;1.30;0.70;;;23.40;49.10;;;;;;5034017;28;20472;-83
2021/05/20 06:11:23;;;;;;;0.90;0.70;;;23.40;48.80;;;;;;5034300;28;20418;-81
2021/05/20 06:13:50;;;;;;;0.80;0.70;;;23.40;49.00;;;;;;5035061;28;20418;-86
2021/05/20 06:16:19;;;;;;;2.20;0.80;;;23.40;48.80;;;;;;5033831;28;20207;-86
2021/05/20 06:18:45;;;;;;;0.97;0.70;;;23.30;48.80;;;;;;5035025;28;20422;-87
2021/05/20 06:21:23;;;;;;;2.50;0.90;;;23.40;49.00;;;;;;5052569;28;20525;-85
2021/05/20 06:23:58;;;;;;;1.20;0.80;;;23.50;48.70;;;;;;5036073;28;20156;-84
2021/05/20 06:26:27;;;;;;;1.83;0.80;;;23.50;48.80;;;;;;5054006;28;20910;-83
2021/05/20 06:28:53;;;;;;;0.90;0.80;;;23.50;48.80;;;;;;5035003;28;20422;-81
2021/05/20 06:31:19;;;;;;;1.13;0.90;;;23.40;48.80;;;;;;5054503;28;20443;-81
2021/05/20 06:33:47;;;;;;;1.33;0.90;;;23.50;48.80;;;;;;5036829;28;20179;-81
2021/05/20 06:36:14;;;;;;;1.00;0.80;;;23.50;48.80;;;;;;5054573;28;20178;-81
2021/05/20 06:38:40;;;;;;;1.00;0.90;;;23.60;49.00;;;;;;5037006;28;20427;-82
2021/05/20 06:41:09;;;;;;;1.10;0.70;;;23.50;48.90;;;;;;5070385;28;20450;-82
2021/05/20 06:43:37;;;;;;;2.47;0.87;;;23.60;49.00;;;;;;5036325;28;20411;-82
2021/05/20 06:46:07;;;;;;;1.00;0.80;;;23.60;48.90;;;;;;5052906;28;20413;-81
2021/05/20 06:48:34;;;;;;;1.40;0.83;;;23.60;48.90;;;;;;5036292;28;20402;-81
2021/05/20 06:51:03;;;;;;;1.10;0.90;;;23.60;48.90;;;;;;5035363;28;20418;-81
2021/05/20 06:53:31;;;;;;;1.10;0.90;;;23.60;49.00;;;;;;5034776;28;20425;-80
2021/05/20 06:56:03;;;;;;;2.13;0.90;;;23.60;49.20;;;;;;5052739;28;20418;-81
2021/05/20 07:01:19;;;;;;;0.97;0.70;;;23.70;49.10;;;;;;5052788;28;20464;-79
2021/05/20 07:04:41;;;;;;;1.00;0.80;;;23.70;49.30;;;;;;5034929;28;20402;-79
2021/05/20 07:07:06;;;;;;;1.30;0.90;;;23.70;49.00;;;;;;5068204;28;20433;-80
2021/05/20 07:09:39;;;;;;;3.47;1.20;;;23.70;49.30;;;;;;5034891;28;20426;-80
2021/05/20 07:12:07;;;;;;;4.10;0.80;;;23.70;48.90;;;;;;5066677;28;20251;-80
2021/05/20 07:14:33;;;;;;;2.70;0.80;;;23.70;49.20;;;;;;5033247;28;20500;-80
2021/05/20 07:17:01;;;;;;;1.80;1.00;;;23.80;49.50;;;;;;5032326;28;20401;-80
2021/05/20 07:19:27;;;;;;;1.60;1.00;;;23.70;49.00;;;;;;5051058;28;20477;-80
2021/05/20 07:21:53;;;;;;;1.40;0.90;;;23.80;49.40;;;;;;5067671;28;20410;-80
2021/05/20 07:24:22;;;;;;;1.17;0.70;;;23.80;49.10;;;;;;5049108;28;20202;-80
2021/05/20 07:26:51;;;;;;;1.10;0.80;;;23.80;49.10;;;;;;5036080;28;20418;-81
2021/05/20 07:29:16;;;;;;;1.40;0.80;;;23.80;49.20;;;;;;5052550;28;20489;-81
2021/05/20 07:31:44;;;;;;;1.80;1.33;;;23.80;49.20;;;;;;5051969;28;20417;-80
2021/05/20 07:34:10;;;;;;;2.80;0.90;;;23.80;49.10;;;;;;5048844;28;20247;-79
2021/05/20 07:36:41;;;;;;;2.67;0.70;;;23.80;50.00;;;;;;5050414;28;20415;-81
2021/05/20 07:39:08;;;;;;;1.10;0.80;;;23.80;49.00;;;;;;5050925;28;20418;-82
2021/05/20 07:41:41;;;;;;;2.80;1.00;;;23.70;49.00;;;;;;5052501;28;20757;-82
2021/05/20 07:44:11;;;;;;;1.30;0.90;;;23.90;49.50;;;;;;5051317;28;20979;-82
2021/05/20 07:46:59;;;;;;;0.90;0.73;;;23.70;49.00;;;;;;5051504;28;20418;-82
2021/05/20 07:49:28;;;;;;;1.13;0.90;;;23.90;49.20;;;;;;5052250;28;20461;-83
2021/05/20 07:51:54;;;;;;;1.57;0.70;;;23.80;49.20;;;;;;5051354;28;20446;-82
2021/05/20 07:54:26;;;;;;;2.77;0.90;;;23.80;49.60;;;;;;5050155;28;20441;-82
2021/05/20 07:57:04;;;;;;;1.40;0.80;;;23.90;49.20;;;;;;5050312;28;20500;-82
2021/05/20 08:00:08;;;;;;;1.17;0.80;;;23.90;49.10;;;;;;5050830;28;20476;-81
2021/05/20 08:07:56;;;;;;;1.20;0.97;;;23.90;49.20;;;;;;5050979;28;20397;-81
2021/05/20 08:13:14;;;;;;;1.13;0.73;;;23.80;49.10;;;;;;5049708;28;20830;-79
2021/05/20 08:15:40;;;;;;;1.33;0.80;;;23.90;49.50;;;;;;5048604;28;20414;-80
2021/05/20 08:18:06;;;;;;;2.00;0.70;;;23.90;49.40;;;;;;5033439;28;20435;-82
2021/05/20 08:20:33;;;;;;;1.57;0.80;;;24.00;49.40;;;;;;5051005;28;20466;-82
2021/05/20 08:22:59;;;;;;;1.10;0.90;;;23.90;49.50;;;;;;5034104;28;20472;-82
2021/05/20 08:25:28;;;;;;;0.90;0.70;;;23.90;49.50;;;;;;5051724;28;20168;-82
2021/05/20 08:27:54;;;;;;;1.07;0.80;;;24.00;49.30;;;;;;5033955;28;20462;-82
2021/05/20 08:30:20;;;;;;;1.20;0.70;;;24.00;49.50;;;;;;5034245;28;20430;-82
2021/05/20 08:32:49;;;;;;;1.53;0.90;;;24.00;49.30;;;;;;5035298;28;20199;-81
2021/05/20 08:38:22;;;;;;;1.30;0.93;;;23.80;49.00;;;;;;5039656;28;20426;-83
2021/05/20 08:40:51;;;;;;;1.33;0.83;;;24.00;49.30;;;;;;5021410;28;20608;-82
2021/05/20 08:43:25;;;;;;;1.30;1.10;;;24.00;49.50;;;;;;5038133;28;20418;-83
2021/05/20 08:45:56;;;;;;;0.90;0.70;;;24.00;49.50;;;;;;5056174;28;20391;-83
2021/05/20 08:48:25;;;;;;;1.00;0.80;;;24.00;49.20;;;;;;5037772;28;20434;-82
2021/05/20 08:51:01;;;;;;;1.90;1.30;;;24.00;49.30;;;;;;5038645;28;20448;-83
2021/05/20 08:53:33;;;;;;;2.30;1.10;;;24.00;49.30;;;;;;5038070;28;20425;-80
2021/05/20 08:55:59;;;;;;;1.70;1.20;;;24.00;49.70;;;;;;5038625;28;20422;-80
2021/05/20 08:58:25;;;;;;;3.03;0.97;;;24.00;49.50;;;;;;5037471;28;20436;-80
2021/05/20 09:01:03;;;;;;;1.73;0.90;;;24.00;49.60;;;;;;5036049;28;20191;-81
2021/05/20 09:03:28;;;;;;;1.00;0.80;;;24.00;49.60;;;;;;5053988;28;20446;-81
2021/05/20 09:06:04;;;;;;;1.73;1.17;;;24.10;49.50;;;;;;5037753;28;20415;-83
2021/05/20 09:08:35;;;;;;;1.73;0.80;;;24.10;49.30;;;;;;5038442;28;20202;-82
2021/05/20 09:11:25;;;;;;;2.57;1.30;;;24.10;49.70;;;;;;5037310;28;20418;-82
2021/05/20 09:14:11;;;;;;;1.63;0.87;;;24.00;49.30;;;;;;5055297;28;20407;-82
2021/05/20 09:16:42;;;;;;;2.23;1.10;;;24.10;49.40;;;;;;5055182;28;20413;-83
2021/05/20 09:19:21;;;;;;;4.43;1.23;;;24.10;49.40;;;;;;5054945;28;20415;-81
2021/05/20 09:22:12;;;;;;;1.73;0.93;;;24.10;49.40;;;;;;5053857;28;20492;-82
2021/05/20 09:24:47;;;;;;;1.93;0.80;;;24.30;49.50;;;;;;5055594;28;20417;-81
2021/05/20 09:27:25;;;;;;;1.40;1.00;;;24.10;49.60;;;;;;5048458;28;20436;-81
2021/05/20 09:30:11;;;;;;;1.30;0.83;;;24.10;49.70;;;;;;5017644;28;20453;-80
2021/05/20 09:32:41;;;;;;;1.40;0.77;;;24.10;49.50;;;;;;5014817;28;20507;-81
2021/05/20 09:35:08;;;;;;;2.80;0.90;;;24.10;49.60;;;;;;5014694;28;20478;-81
2021/05/20 09:37:45;;;;;;;2.13;1.00;;;24.10;49.60;;;;;;5017746;28;20442;-81
2021/05/20 09:40:15;;;;;;;1.83;1.23;;;24.10;49.40;;;;;;5014735;28;20489;-80
2021/05/20 09:42:41;;;;;;;1.20;0.80;;;24.20;49.60;;;;;;5015672;28;20442;-79
2021/05/20 09:45:12;;;;;;;2.90;2.53;;;24.10;49.70;;;;;;5013955;28;20423;-81
2021/05/20 09:47:38;;;;;;;1.37;1.27;;;24.10;49.50;;;;;;5014039;28;20458;-81
2021/05/20 09:50:07;;;;;;;3.23;1.10;;;24.10;49.50;;;;;;5015837;28;20424;-82
2021/05/20 09:52:35;;;;;;;4.70;1.20;;;24.20;49.60;;;;;;5016929;28;20415;-83
2021/05/20 09:55:03;;;;;;;1.70;1.10;;;24.20;49.70;;;;;;5017968;28;20431;-83
2021/05/20 09:57:38;;;;;;;4.17;1.53;;;24.20;49.50;;;;;;5017198;28;20420;-82
2021/05/20 10:00:15;;;;;;;3.17;1.10;;;24.20;49.50;;;;;;5034886;28;20446;-82
2021/05/20 10:02:46;;;;;;;1.77;0.97;;;24.20;49.50;;;;;;5017601;28;20415;-83
2021/05/20 10:05:42;;;;;;;1.20;0.87;;;24.20;49.40;;;;;;5017206;28;20518;-83
2021/05/20 10:08:10;;;;;;;3.30;1.07;;;24.20;49.30;;;;;;5016537;28;20419;-82
2021/05/20 10:11:04;;;;;;;2.03;1.00;;;24.20;49.40;;;;;;5017296;28;20449;-82
2021/05/20 10:13:33;;;;;;;1.93;1.10;;;24.20;49.50;;;;;;5016579;28;20412;-83
2021/05/20 10:16:13;;;;;;;2.20;1.17;;;24.20;49.40;;;;;;5017166;28;20454;-82
2021/05/20 10:18:45;;;;;;;5.33;1.50;;;24.20;49.30;;;;;;5016821;28;20418;-82
2021/05/20 10:21:11;;;;;;;2.20;1.30;;;24.20;49.50;;;;;;5015500;28;20506;-85
2021/05/20 10:23:37;;;;;;;4.80;1.40;;;24.20;49.50;;;;;;5016716;28;20429;-83
2021/05/20 10:26:39;;;;;;;;;;;;;;;;;;;;;
2021/05/20 10:29:14;;;;;;;2.23;1.30;;;24.20;49.30;;;;;;5032104;28;20419;-82
2021/05/20 10:38:58;;;;;;;2.80;1.10;;;24.20;49.80;;;;;;4916907;29;20474;-84
2021/05/20 10:41:57;;;;;;;1.37;1.10;;;24.20;49.40;;;;;;4960046;29;20486;-82
2021/05/20 10:48:49;;;;;;;;;;;;;;;;;;;;;
2021/05/20 10:51:54;;;;;;;1.33;1.23;;;24.10;49.20;;;;;;4898049;29;20466;-83
2021/05/20 11:22:22;;;;;;;3.00;1.77;;;24.10;49.10;;;;;;4860916;29;20560;-84
2021/05/20 11:41:59;;;;;;;2.70;1.80;;;24.00;49.20;;;;;;4894288;29;20978;-85
2021/05/20 11:48:38;;;;;;;2.57;1.50;;;23.90;49.20;;;;;;4820892;29;20445;-86
2021/05/20 11:54:28;;;;;;;3.53;2.13;;;23.80;49.20;;;;;;4821878;29;20393;-86
2021/05/20 11:56:59;;;;;;;2.53;1.40;;;23.90;49.40;;;;;;4842325;29;20432;-86
2021/05/20 12:17:06;;;;;;;;;;;;;;;;;;;;;
2021/05/20 12:23:41;;;;;;;;;;;;;;;;;;;;;
2021/05/20 12:26:52;;;;;;;2.20;1.47;;;23.80;49.40;;;;;;4809208;29;20457;-84
2021/05/20 12:36:30;;;;;;;1.53;1.37;;;23.80;49.50;;;;;;4718844;30;20413;-83
2021/05/20 12:39:24;;;;;;;1.47;1.10;;;23.80;49.50;;;;;;4729096;30;20430;-82
2021/05/20 12:45:49;;;;;;;;;;;;;;;;;;;;;
2021/05/20 12:48:32;;;;;;;3.47;1.30;;;23.80;49.50;;;;;;4770730;30;20431;-83
2021/05/20 12:51:23;;;;;;;2.17;1.37;;;23.80;49.60;;;;;;4770191;30;20424;-84
2021/05/20 13:01:20;;;;;;;1.63;1.10;;;23.80;49.60;;;;;;4788297;30;20496;-84
2021/05/20 13:04:06;;;;;;;;;;;;;;;;;;;;;
2021/05/20 13:07:20;;;;;;;2.67;1.47;;;23.70;49.60;;;;;;4900920;29;20427;-83
2021/05/20 13:23:37;;;;;;;2.57;1.30;;;23.70;49.60;;;;;;4898770;29;20388;-83
2021/05/20 13:26:23;;;;;;;1.60;1.20;;;23.70;49.60;;;;;;4899676;29;20425;-84
2021/05/20 13:29:07;;;;;;;1.50;1.00;;;23.70;49.70;;;;;;4887016;29;20422;-84
2021/05/20 13:31:43;;;;;;;1.90;1.40;;;23.70;49.80;;;;;;4886493;29;20421;-84
2021/05/20 13:34:54;;;;;;;1.67;1.20;;;23.70;49.60;;;;;;4870723;29;20425;-83
2021/05/20 13:41:37;;;;;;;;;;;;;;;;;;;;;
2021/05/20 13:51:11;;;;;;;2.50;2.03;;;23.70;49.70;;;;;;4990918;28;20431;-85
2021/05/20 13:58:07;;;;;;;1.63;1.40;;;23.70;49.70;;;;;;4996179;28;20425;-85
2021/05/20 14:01:29;;;;;;;1.73;1.30;;;23.70;49.70;;;;;;4990419;28;20553;-85
2021/05/20 14:14:46;;;;;;;2.23;1.27;;;23.60;49.80;;;;;;4804248;30;20457;-86
2021/05/20 14:17:59;;;;;;;1.80;1.40;;;23.60;49.80;;;;;;4787922;30;20447;-86
2021/05/20 14:21:14;;;;;;;2.20;1.30;;;23.60;49.70;;;;;;4770917;30;20505;-85
2021/05/20 14:23:50;;;;;;;1.23;1.13;;;23.60;49.80;;;;;;4753209;30;20441;-86
2021/05/20 14:26:20;;;;;;;1.37;1.27;;;23.60;49.90;;;;;;4753896;30;20950;-86
2021/05/20 14:36:19;;;;;;;2.60;1.40;;;23.70;49.70;;;;;;4768213;30;20476;-86
2021/05/20 14:55:44;;;;;;;1.90;1.20;;;23.60;49.80;;;;;;4840953;29;20423;-84
2021/05/20 15:06:56;;;;;;;1.60;1.20;;;23.60;49.60;;;;;;4911247;29;20422;-84
2021/05/20 15:15:49;;;;;;;3.43;1.20;;;23.60;49.80;;;;;;4892541;29;20601;-84
2021/05/20 15:18:22;;;;;;;1.90;1.40;;;23.70;49.70;;;;;;4915263;29;20424;-84
2021/05/20 15:20:51;;;;;;;2.13;1.37;;;23.70;50.20;;;;;;4932220;29;20467;-84
2021/05/20 15:24:00;;;;;;;1.40;1.20;;;23.70;50.30;;;;;;4968097;29;20426;-84
2021/05/20 15:26:26;;;;;;;3.83;1.50;;;23.80;50.00;;;;;;4929993;29;20549;-85
2021/05/20 15:28:54;;;;;;;1.93;1.30;;;24.00;50.50;;;;;;4964524;28;20437;-84
2021/05/20 15:31:25;;;;;;;1.70;1.10;;;23.80;50.00;;;;;;4989610;28;20213;-84
2021/05/20 15:34:13;;;;;;;;;;;;;;;;;;;;;
2021/05/20 15:36:53;;;;;;;1.37;1.10;;;23.90;50.00;;;;;;5007039;28;20859;-83
2021/05/20 15:46:00;;;;;;;2.70;1.30;;;23.90;49.80;;;;;;5008304;28;20452;-84
2021/05/20 15:51:39;;;;;;;2.43;2.23;;;23.90;49.70;;;;;;4993853;28;20427;-84
2021/05/20 15:54:06;;;;;;;1.80;1.43;;;23.90;49.80;;;;;;4991617;28;20430;-84
2021/05/20 15:56:35;;;;;;;1.90;1.40;;;23.90;49.60;;;;;;4989294;28;20432;-84
2021/05/20 15:59:01;;;;;;;2.10;1.17;;;23.90;49.90;;;;;;4989341;28;20456;-85
2021/05/20 16:01:44;;;;;;;1.80;1.30;;;23.90;49.80;;;;;;4990316;28;20499;-85
2021/05/20 16:04:13;;;;;;;3.17;1.20;;;24.00;49.60;;;;;;5038201;28;20241;-84
2021/05/20 16:06:46;;;;;;;3.20;1.70;;;23.90;49.80;;;;;;5048999;28;20441;-83
2021/05/20 17:58:45;;;;;;;2.13;1.57;;;23.90;49.30;;;;;;4875105;29;20509;-83
2021/05/20 18:01:26;;;;;;;3.90;1.40;;;23.90;49.50;;;;;;4927779;29;20479;-86
2021/05/20 18:04:25;;;;;;;1.47;1.20;;;23.90;49.80;;;;;;4933108;29;20427;-82
2021/05/20 18:11:16;;;;;;;;;;;;;;;;;;;;;
2021/05/20 18:14:33;;;;;;;1.47;1.20;;;23.90;49.20;;;;;;4909973;29;20477;-84
2021/05/20 19:46:07;;;;;;;3.00;1.40;;;24.00;49.20;;;;;;4858408;29;20418;-86
2021/05/20 20:01:26;;;;;;;4.37;3.00;;;24.00;49.20;;;;;;4957067;29;20472;-86
2021/05/20 20:04:01;;;;;;;8.40;4.90;;;23.90;49.20;;;;;;4969830;29;20402;-85
2021/05/20 20:06:53;;;;;;;8.50;6.40;;;24.00;49.20;;;;;;4968008;29;20436;-86
2021/05/20 20:10:12;;;;;;;8.90;7.10;;;24.00;49.20;;;;;;4968827;29;20433;-84
2021/05/20 20:12:38;;;;;;;12.50;8.27;;;24.00;49.20;;;;;;4982218;28;20471;-84
2021/05/20 20:15:04;;;;;;;11.90;9.10;;;23.90;49.10;;;;;;5008288;28;20425;-85
2021/05/20 20:17:32;;;;;;;13.10;8.33;;;24.00;49.20;;;;;;5020670;28;20259;-84
2021/05/20 20:20:00;;;;;;;12.87;9.30;;;23.90;49.20;;;;;;5028836;28;20484;-84
2021/05/20 20:22:46;;;;;;;;;;;;;;;;;;;;;
2021/05/20 20:25:22;;;;;;;13.20;10.57;;;23.90;49.20;;;;;;5029579;28;20450;-84
2021/05/20 20:27:57;;;;;;;13.13;9.33;;;23.90;49.30;;;;;;5028705;28;20403;-83
2021/05/20 20:30:27;;;;;;;18.47;12.37;;;23.90;49.30;;;;;;5027627;28;20511;-83
2021/05/20 20:41:24;;;;;;;17.87;12.37;;;23.80;49.30;;;;;;5029384;28;20465;-86
2021/05/20 20:43:51;;;;;;;21.77;13.27;;;23.80;49.40;;;;;;5028331;28;20475;-86
2021/05/20 20:46:19;;;;;;;16.70;11.77;;;23.80;49.30;;;;;;5028588;28;20424;-84
2021/05/20 20:48:46;;;;;;;16.83;12.17;;;23.70;49.30;;;;;;5030529;28;20391;-86
2021/05/20 20:51:18;;;;;;;17.17;11.80;;;23.80;49.30;;;;;;5029304;28;20490;-85
2021/05/20 20:54:17;;;;;;;;;;;;;;;;;;;;;
2021/05/20 20:56:36;;;;;;;16.10;11.20;;;23.80;49.40;;;;;;5028824;28;20456;-86
2021/05/20 20:59:05;;;;;;;16.50;12.20;;;23.80;49.40;;;;;;5029431;28;20419;-86
2021/05/20 21:04:43;;;;;;;15.33;10.90;;;23.70;49.30;;;;;;5029018;28;20917;-85
2021/05/20 21:07:11;;;;;;;15.60;12.27;;;23.70;49.40;;;;;;5029155;28;20457;-85
2021/05/20 21:09:43;;;;;;;15.07;11.00;;;23.70;49.40;;;;;;5029520;28;20412;-85